Flight Number: EUR3058 Duration: 11:00
Departure: Paris Charles-de-Gaulle (LFPG) at 08:00 Distance: 4964 Nm
Arrival: Mexico City Int'l Airport (MMMX) at 19:00 Equipment: A340

Weather Information
Paris-Aeroport Charles De Gaulle, France (LFPG) 49-01N 002-32E 109M Feb 19, 2018 - 02:30 AM EST / 2018.02.19 0730 UTC
Wind: from the SE (140 degrees) at 7 MPH (6 KT):0
Visibility: 4 mile(s):0
Sky conditions: mostly cloudy Temperature: 32 F (0 C)
Windchill: 24 F (-4 C):1 Dew Point: 30 F (-1 C) Relative Humidity: 92% Pressure (altimeter): 30.12 in. Hg (1020 hPa)
ob: LFPG 190730Z 14006KT 8000 SCT033 BKN036 00/M01 Q1020 NOSIG cycle: 7
Sunrise: 06:53 Sunset: 17:13 (UTC)

Mexico City / Licenci, Mexico (MMMX) 19-26N 099-06W Feb 19, 2018 - 02:53 AM EST / 2018.02.19 0753 UTC
Wind: from the SE (140 degrees) at 7 MPH (6 KT):0
Visibility: 12 mile(s):0
Sky conditions: mostly cloudy Temperature: 57 F (14 C) Dew Point: 41 F (5 C) Relative Humidity: 54% Pressure (altimeter): 30.27 in. Hg (1025 hPa)
ob: MMMX 190753Z 14006KT 12SM SCT025 BKN070 14/05 A3027 NOSIG RMK 8/530 cycle: 8
Sunrise: 13:04 Sunset: 00:35 (UTC)

TAF:2018/02/19 06:48 TAF MMMX 190445Z 1906/2012 15006KT 6SM HZ SCT020 TX25/1921Z TN09/1912Z TEMPO 1912/1916 3SM HZ FM191800 16010KT 6SM HZ SCT020 TEMPO 1922/2002 BKN020 FM200400 16005KT 6SM HZ SCT020

This route has never been flown.

Route map